sensor_id;sensor_type;location;lat;lon;timestamp;P1;durP1;ratioP1;P2;durP2;ratioP2
69750;SDS011;57335;52.288;6.056;2023-05-10T00:00:59;15.10;;;5.18;;
69750;SDS011;57335;52.288;6.056;2023-05-10T00:03:25;16.15;;;5.25;;
69750;SDS011;57335;52.288;6.056;2023-05-10T00:05:52;16.45;;;5.00;;
69750;SDS011;57335;52.288;6.056;2023-05-10T00:08:18;14.68;;;5.28;;
69750;SDS011;57335;52.288;6.056;2023-05-10T00:10:45;17.70;;;4.93;;
69750;SDS011;57335;52.288;6.056;2023-05-10T00:13:11;16.20;;;5.70;;
69750;SDS011;57335;52.288;6.056;2023-05-10T00:15:37;17.38;;;5.50;;
69750;SDS011;57335;52.288;6.056;2023-05-10T00:18:04;14.02;;;5.05;;
69750;SDS011;57335;52.288;6.056;2023-05-10T00:20:30;16.80;;;5.20;;
69750;SDS011;57335;52.288;6.056;2023-05-10T00:22:57;16.40;;;5.63;;
69750;SDS011;57335;52.288;6.056;2023-05-10T00:25:23;16.10;;;5.80;;
69750;SDS011;57335;52.288;6.056;2023-05-10T00:27:50;18.48;;;5.53;;
69750;SDS011;57335;52.288;6.056;2023-05-10T00:30:16;16.48;;;5.40;;
69750;SDS011;57335;52.288;6.056;2023-05-10T00:32:43;16.42;;;5.82;;
69750;SDS011;57335;52.288;6.056;2023-05-10T00:35:09;17.58;;;5.93;;
69750;SDS011;57335;52.288;6.056;2023-05-10T00:37:36;17.45;;;5.80;;
69750;SDS011;57335;52.288;6.056;2023-05-10T00:40:02;14.60;;;5.60;;
69750;SDS011;57335;52.288;6.056;2023-05-10T00:42:29;16.98;;;6.00;;
69750;SDS011;57335;52.288;6.056;2023-05-10T00:44:55;19.08;;;6.97;;
69750;SDS011;57335;52.288;6.056;2023-05-10T00:47:22;19.58;;;6.60;;
69750;SDS011;57335;52.288;6.056;2023-05-10T00:49:48;18.63;;;6.40;;
69750;SDS011;57335;52.288;6.056;2023-05-10T00:52:15;23.40;;;7.05;;
69750;SDS011;57335;52.288;6.056;2023-05-10T00:54:41;23.77;;;6.53;;
69750;SDS011;57335;52.288;6.056;2023-05-10T00:57:08;21.15;;;6.97;;
69750;SDS011;57335;52.288;6.056;2023-05-10T00:59:34;22.52;;;7.00;;
69750;SDS011;57335;52.288;6.056;2023-05-10T01:02:01;23.65;;;6.90;;
69750;SDS011;57335;52.288;6.056;2023-05-10T01:04:27;23.40;;;7.40;;
69750;SDS011;57335;52.288;6.056;2023-05-10T01:06:54;22.77;;;7.20;;
69750;SDS011;57335;52.288;6.056;2023-05-10T01:09:21;22.45;;;7.50;;
69750;SDS011;57335;52.288;6.056;2023-05-10T01:11:48;24.27;;;7.55;;
69750;SDS011;57335;52.288;6.056;2023-05-10T01:14:15;26.80;;;7.63;;
69750;SDS011;57335;52.288;6.056;2023-05-10T01:16:44;24.20;;;7.22;;
69750;SDS011;57335;52.288;6.056;2023-05-10T01:19:17;23.90;;;7.65;;
69750;SDS011;57335;52.288;6.056;2023-05-10T01:22:06;22.45;;;7.65;;
69750;SDS011;57335;52.288;6.056;2023-05-10T01:33:28;30.50;;;8.88;;
69750;SDS011;57335;52.288;6.056;2023-05-10T01:36:21;24.92;;;8.15;;
69750;SDS011;57335;52.288;6.056;2023-05-10T01:39:06;27.33;;;8.38;;
69750;SDS011;57335;52.288;6.056;2023-05-10T01:41:45;20.90;;;7.18;;
69750;SDS011;57335;52.288;6.056;2023-05-10T01:46:53;27.42;;;8.70;;
69750;SDS011;57335;52.288;6.056;2023-05-10T01:49:25;30.13;;;8.32;;
69750;SDS011;57335;52.288;6.056;2023-05-10T01:51:56;35.83;;;10.32;;
69750;SDS011;57335;52.288;6.056;2023-05-10T01:54:29;30.70;;;9.52;;
69750;SDS011;57335;52.288;6.056;2023-05-10T01:57:00;41.10;;;10.20;;
69750;SDS011;57335;52.288;6.056;2023-05-10T01:59:34;41.03;;;10.52;;
69750;SDS011;57335;52.288;6.056;2023-05-10T02:02:02;40.42;;;10.98;;
69750;SDS011;57335;52.288;6.056;2023-05-10T02:04:31;40.58;;;10.63;;
69750;SDS011;57335;52.288;6.056;2023-05-10T02:07:01;47.22;;;11.40;;
69750;SDS011;57335;52.288;6.056;2023-05-10T02:09:28;41.67;;;12.35;;
69750;SDS011;57335;52.288;6.056;2023-05-10T02:11:58;46.45;;;11.55;;
69750;SDS011;57335;52.288;6.056;2023-05-10T02:14:27;43.70;;;11.45;;
69750;SDS011;57335;52.288;6.056;2023-05-10T02:16:56;41.75;;;12.00;;
69750;SDS011;57335;52.288;6.056;2023-05-10T02:19:25;39.13;;;11.73;;
69750;SDS011;57335;52.288;6.056;2023-05-10T02:21:53;46.65;;;11.88;;
69750;SDS011;57335;52.288;6.056;2023-05-10T02:24:21;43.25;;;10.57;;
69750;SDS011;57335;52.288;6.056;2023-05-10T02:26:51;52.70;;;12.18;;
69750;SDS011;57335;52.288;6.056;2023-05-10T02:29:22;40.03;;;10.98;;
69750;SDS011;57335;52.288;6.056;2023-05-10T02:31:51;55.60;;;13.48;;
69750;SDS011;57335;52.288;6.056;2023-05-10T02:34:19;60.65;;;13.82;;
69750;SDS011;57335;52.288;6.056;2023-05-10T02:36:48;54.15;;;13.70;;
69750;SDS011;57335;52.288;6.056;2023-05-10T02:39:17;59.03;;;14.27;;
69750;SDS011;57335;52.288;6.056;2023-05-10T02:41:45;61.72;;;13.30;;
69750;SDS011;57335;52.288;6.056;2023-05-10T02:44:14;52.55;;;12.32;;
69750;SDS011;57335;52.288;6.056;2023-05-10T02:46:41;42.90;;;12.27;;
69750;SDS011;57335;52.288;6.056;2023-05-10T02:49:08;64.45;;;13.82;;
69750;SDS011;57335;52.288;6.056;2023-05-10T02:51:35;61.15;;;13.95;;
69750;SDS011;57335;52.288;6.056;2023-05-10T02:54:27;68.55;;;15.93;;
69750;SDS011;57335;52.288;6.056;2023-05-10T02:56:56;75.95;;;16.35;;
69750;SDS011;57335;52.288;6.056;2023-05-10T02:59:24;69.88;;;16.73;;
69750;SDS011;57335;52.288;6.056;2023-05-10T03:01:50;82.72;;;17.55;;
69750;SDS011;57335;52.288;6.056;2023-05-10T03:04:17;73.90;;;16.95;;
69750;SDS011;57335;52.288;6.056;2023-05-10T03:06:43;82.88;;;16.85;;
69750;SDS011;57335;52.288;6.056;2023-05-10T03:09:10;82.97;;;16.48;;
69750;SDS011;57335;52.288;6.056;2023-05-10T03:16:45;93.80;;;18.23;;
69750;SDS011;57335;52.288;6.056;2023-05-10T03:22:37;89.18;;;17.65;;
69750;SDS011;57335;52.288;6.056;2023-05-10T03:25:05;90.18;;;18.33;;
69750;SDS011;57335;52.288;6.056;2023-05-10T03:27:33;101.43;;;19.80;;
69750;SDS011;57335;52.288;6.056;2023-05-10T03:30:02;110.85;;;20.58;;
69750;SDS011;57335;52.288;6.056;2023-05-10T03:32:29;110.72;;;20.48;;
69750;SDS011;57335;52.288;6.056;2023-05-10T03:34:55;106.60;;;21.20;;
69750;SDS011;57335;52.288;6.056;2023-05-10T03:37:22;102.53;;;20.63;;
69750;SDS011;57335;52.288;6.056;2023-05-10T03:39:48;93.75;;;19.63;;
69750;SDS011;57335;52.288;6.056;2023-05-10T03:42:14;121.45;;;20.50;;
69750;SDS011;57335;52.288;6.056;2023-05-10T03:44:41;112.68;;;21.67;;
69750;SDS011;57335;52.288;6.056;2023-05-10T03:47:07;114.75;;;21.35;;
69750;SDS011;57335;52.288;6.056;2023-05-10T03:49:34;94.32;;;20.23;;
69750;SDS011;57335;52.288;6.056;2023-05-10T03:52:00;108.32;;;21.05;;
69750;SDS011;57335;52.288;6.056;2023-05-10T03:54:27;109.03;;;20.70;;
69750;SDS011;57335;52.288;6.056;2023-05-10T03:56:53;115.72;;;20.83;;
69750;SDS011;57335;52.288;6.056;2023-05-10T03:59:19;103.32;;;20.77;;
69750;SDS011;57335;52.288;6.056;2023-05-10T04:01:46;115.25;;;20.83;;
69750;SDS011;57335;52.288;6.056;2023-05-10T04:04:12;124.60;;;21.73;;
69750;SDS011;57335;52.288;6.056;2023-05-10T04:06:39;112.10;;;21.50;;
69750;SDS011;57335;52.288;6.056;2023-05-10T04:09:05;102.32;;;20.98;;
69750;SDS011;57335;52.288;6.056;2023-05-10T04:11:32;124.07;;;22.48;;
69750;SDS011;57335;52.288;6.056;2023-05-10T04:13:58;116.93;;;22.35;;
69750;SDS011;57335;52.288;6.056;2023-05-10T04:16:24;119.70;;;23.02;;
69750;SDS011;57335;52.288;6.056;2023-05-10T04:18:51;119.97;;;22.58;;
69750;SDS011;57335;52.288;6.056;2023-05-10T04:21:17;103.78;;;22.42;;
69750;SDS011;57335;52.288;6.056;2023-05-10T04:23:43;98.53;;;22.20;;
69750;SDS011;57335;52.288;6.056;2023-05-10T04:26:10;107.85;;;21.45;;
69750;SDS011;57335;52.288;6.056;2023-05-10T04:28:36;95.30;;;21.60;;
69750;SDS011;57335;52.288;6.056;2023-05-10T04:31:07;96.18;;;20.63;;
69750;SDS011;57335;52.288;6.056;2023-05-10T04:33:35;97.63;;;21.00;;
69750;SDS011;57335;52.288;6.056;2023-05-10T04:36:02;87.22;;;21.05;;
69750;SDS011;57335;52.288;6.056;2023-05-10T04:38:29;113.82;;;21.45;;
69750;SDS011;57335;52.288;6.056;2023-05-10T04:41:08;103.22;;;20.13;;
69750;SDS011;57335;52.288;6.056;2023-05-10T04:43:35;70.15;;;18.23;;
69750;SDS011;57335;52.288;6.056;2023-05-10T04:46:03;103.15;;;20.25;;
69750;SDS011;57335;52.288;6.056;2023-05-10T04:48:31;91.18;;;19.25;;
69750;SDS011;57335;52.288;6.056;2023-05-10T04:50:57;82.53;;;18.80;;
69750;SDS011;57335;52.288;6.056;2023-05-10T04:53:23;77.97;;;19.05;;
69750;SDS011;57335;52.288;6.056;2023-05-10T04:55:50;76.00;;;18.63;;
69750;SDS011;57335;52.288;6.056;2023-05-10T04:58:16;97.43;;;19.38;;
69750;SDS011;57335;52.288;6.056;2023-05-10T05:00:43;75.85;;;19.13;;
69750;SDS011;57335;52.288;6.056;2023-05-10T05:03:09;77.85;;;17.88;;
69750;SDS011;57335;52.288;6.056;2023-05-10T05:05:35;91.90;;;19.15;;
69750;SDS011;57335;52.288;6.056;2023-05-10T05:08:02;75.60;;;17.88;;
69750;SDS011;57335;52.288;6.056;2023-05-10T05:10:29;87.93;;;17.52;;
69750;SDS011;57335;52.288;6.056;2023-05-10T05:12:56;93.63;;;18.65;;
69750;SDS011;57335;52.288;6.056;2023-05-10T05:15:22;79.75;;;17.50;;
69750;SDS011;57335;52.288;6.056;2023-05-10T05:17:49;85.30;;;19.02;;
69750;SDS011;57335;52.288;6.056;2023-05-10T05:20:15;82.78;;;18.60;;
69750;SDS011;57335;52.288;6.056;2023-05-10T05:22:42;79.75;;;20.02;;
69750;SDS011;57335;52.288;6.056;2023-05-10T05:25:08;89.18;;;19.83;;
69750;SDS011;57335;52.288;6.056;2023-05-10T05:27:35;94.57;;;20.23;;
69750;SDS011;57335;52.288;6.056;2023-05-10T05:30:01;92.25;;;19.58;;
69750;SDS011;57335;52.288;6.056;2023-05-10T05:32:28;94.20;;;20.60;;
69750;SDS011;57335;52.288;6.056;2023-05-10T05:34:54;99.95;;;21.63;;
69750;SDS011;57335;52.288;6.056;2023-05-10T05:37:20;104.38;;;20.83;;
69750;SDS011;57335;52.288;6.056;2023-05-10T05:39:47;94.20;;;21.10;;
69750;SDS011;57335;52.288;6.056;2023-05-10T05:42:13;99.03;;;19.30;;
69750;SDS011;57335;52.288;6.056;2023-05-10T05:44:40;93.22;;;19.65;;
69750;SDS011;57335;52.288;6.056;2023-05-10T05:47:06;91.18;;;19.83;;
69750;SDS011;57335;52.288;6.056;2023-05-10T05:49:33;85.45;;;19.15;;
69750;SDS011;57335;52.288;6.056;2023-05-10T05:52:02;79.88;;;19.85;;
69750;SDS011;57335;52.288;6.056;2023-05-10T05:54:29;83.95;;;18.85;;
69750;SDS011;57335;52.288;6.056;2023-05-10T05:56:57;85.00;;;20.02;;
69750;SDS011;57335;52.288;6.056;2023-05-10T05:59:27;76.80;;;17.73;;
69750;SDS011;57335;52.288;6.056;2023-05-10T06:01:54;80.22;;;18.38;;
69750;SDS011;57335;52.288;6.056;2023-05-10T06:04:20;72.55;;;19.20;;
69750;SDS011;57335;52.288;6.056;2023-05-10T06:06:47;65.13;;;17.15;;
69750;SDS011;57335;52.288;6.056;2023-05-10T06:09:13;69.05;;;15.98;;
69750;SDS011;57335;52.288;6.056;2023-05-10T06:11:40;70.75;;;16.88;;
69750;SDS011;57335;52.288;6.056;2023-05-10T06:14:06;72.53;;;17.02;;
69750;SDS011;57335;52.288;6.056;2023-05-10T06:16:33;71.53;;;16.17;;
69750;SDS011;57335;52.288;6.056;2023-05-10T06:19:00;61.30;;;16.27;;
69750;SDS011;57335;52.288;6.056;2023-05-10T06:21:27;70.55;;;17.30;;
69750;SDS011;57335;52.288;6.056;2023-05-10T06:23:53;67.10;;;16.67;;
69750;SDS011;57335;52.288;6.056;2023-05-10T06:26:19;74.18;;;18.35;;
69750;SDS011;57335;52.288;6.056;2023-05-10T06:28:46;79.00;;;18.45;;
69750;SDS011;57335;52.288;6.056;2023-05-10T06:31:12;78.00;;;16.60;;
69750;SDS011;57335;52.288;6.056;2023-05-10T06:33:39;88.75;;;18.85;;
69750;SDS011;57335;52.288;6.056;2023-05-10T06:36:05;75.32;;;18.40;;
69750;SDS011;57335;52.288;6.056;2023-05-10T06:38:31;85.88;;;18.85;;
69750;SDS011;57335;52.288;6.056;2023-05-10T06:40:58;84.53;;;18.30;;
69750;SDS011;57335;52.288;6.056;2023-05-10T06:43:24;98.82;;;18.23;;
69750;SDS011;57335;52.288;6.056;2023-05-10T06:45:50;72.15;;;18.70;;
69750;SDS011;57335;52.288;6.056;2023-05-10T06:48:17;65.97;;;17.85;;
69750;SDS011;57335;52.288;6.056;2023-05-10T06:50:43;71.93;;;17.85;;
69750;SDS011;57335;52.288;6.056;2023-05-10T06:53:10;75.45;;;19.10;;
69750;SDS011;57335;52.288;6.056;2023-05-10T06:55:36;80.25;;;20.23;;
69750;SDS011;57335;52.288;6.056;2023-05-10T06:58:03;75.82;;;18.70;;
69750;SDS011;57335;52.288;6.056;2023-05-10T07:00:29;77.38;;;18.98;;
69750;SDS011;57335;52.288;6.056;2023-05-10T07:02:55;75.03;;;18.98;;
69750;SDS011;57335;52.288;6.056;2023-05-10T07:05:22;74.18;;;19.17;;
69750;SDS011;57335;52.288;6.056;2023-05-10T07:07:48;80.90;;;20.75;;
69750;SDS011;57335;52.288;6.056;2023-05-10T07:10:15;69.45;;;18.70;;
69750;SDS011;57335;52.288;6.056;2023-05-10T07:12:41;77.57;;;18.95;;
69750;SDS011;57335;52.288;6.056;2023-05-10T07:15:08;72.38;;;19.33;;
69750;SDS011;57335;52.288;6.056;2023-05-10T07:17:35;67.57;;;18.20;;
69750;SDS011;57335;52.288;6.056;2023-05-10T07:20:01;64.30;;;17.38;;
69750;SDS011;57335;52.288;6.056;2023-05-10T07:22:28;59.80;;;17.88;;
69750;SDS011;57335;52.288;6.056;2023-05-10T07:24:54;58.17;;;17.13;;
69750;SDS011;57335;52.288;6.056;2023-05-10T07:27:20;61.25;;;18.77;;
69750;SDS011;57335;52.288;6.056;2023-05-10T07:29:47;53.47;;;16.55;;
69750;SDS011;57335;52.288;6.056;2023-05-10T07:32:13;49.58;;;16.92;;
69750;SDS011;57335;52.288;6.056;2023-05-10T07:34:40;52.08;;;16.73;;
69750;SDS011;57335;52.288;6.056;2023-05-10T07:37:06;52.22;;;16.63;;
69750;SDS011;57335;52.288;6.056;2023-05-10T07:39:32;55.20;;;15.50;;
69750;SDS011;57335;52.288;6.056;2023-05-10T07:41:59;53.22;;;16.25;;
69750;SDS011;57335;52.288;6.056;2023-05-10T07:44:25;49.08;;;16.30;;
69750;SDS011;57335;52.288;6.056;2023-05-10T07:46:51;46.05;;;15.43;;
69750;SDS011;57335;52.288;6.056;2023-05-10T07:49:18;43.40;;;14.43;;
69750;SDS011;57335;52.288;6.056;2023-05-10T07:51:44;45.58;;;14.18;;
69750;SDS011;57335;52.288;6.056;2023-05-10T07:54:10;46.92;;;15.18;;
69750;SDS011;57335;52.288;6.056;2023-05-10T07:56:37;48.15;;;14.30;;
69750;SDS011;57335;52.288;6.056;2023-05-10T07:59:03;35.67;;;12.10;;
69750;SDS011;57335;52.288;6.056;2023-05-10T08:01:30;34.40;;;11.20;;
69750;SDS011;57335;52.288;6.056;2023-05-10T08:03:57;36.45;;;11.88;;
69750;SDS011;57335;52.288;6.056;2023-05-10T08:06:24;34.83;;;10.88;;
69750;SDS011;57335;52.288;6.056;2023-05-10T08:08:50;31.23;;;10.23;;
69750;SDS011;57335;52.288;6.056;2023-05-10T08:11:17;33.20;;;10.55;;
69750;SDS011;57335;52.288;6.056;2023-05-10T08:13:44;29.83;;;9.60;;
69750;SDS011;57335;52.288;6.056;2023-05-10T08:16:10;30.25;;;10.13;;
69750;SDS011;57335;52.288;6.056;2023-05-10T08:18:37;25.55;;;8.88;;
69750;SDS011;57335;52.288;6.056;2023-05-10T08:21:04;29.77;;;9.55;;
69750;SDS011;57335;52.288;6.056;2023-05-10T08:23:30;27.35;;;9.00;;
69750;SDS011;57335;52.288;6.056;2023-05-10T08:25:57;28.70;;;9.77;;
69750;SDS011;57335;52.288;6.056;2023-05-10T08:28:23;25.95;;;8.48;;
69750;SDS011;57335;52.288;6.056;2023-05-10T08:30:50;25.60;;;8.27;;
69750;SDS011;57335;52.288;6.056;2023-05-10T08:33:17;29.95;;;9.68;;
69750;SDS011;57335;52.288;6.056;2023-05-10T08:35:44;28.85;;;8.70;;
69750;SDS011;57335;52.288;6.056;2023-05-10T08:38:10;25.30;;;8.45;;
69750;SDS011;57335;52.288;6.056;2023-05-10T08:40:37;26.73;;;8.60;;
69750;SDS011;57335;52.288;6.056;2023-05-10T08:45:36;24.95;;;8.32;;
69750;SDS011;57335;52.288;6.056;2023-05-10T08:48:08;24.83;;;7.97;;
69750;SDS011;57335;52.288;6.056;2023-05-10T08:50:36;23.33;;;7.45;;
69750;SDS011;57335;52.288;6.056;2023-05-10T08:53:09;22.58;;;7.88;;
69750;SDS011;57335;52.288;6.056;2023-05-10T08:55:37;20.00;;;7.32;;
69750;SDS011;57335;52.288;6.056;2023-05-10T08:58:06;20.48;;;7.50;;
69750;SDS011;57335;52.288;6.056;2023-05-10T09:00:33;34.22;;;14.15;;
69750;SDS011;57335;52.288;6.056;2023-05-10T09:03:00;17.98;;;7.55;;
69750;SDS011;57335;52.288;6.056;2023-05-10T09:05:27;28.25;;;10.75;;
69750;SDS011;57335;52.288;6.056;2023-05-10T09:07:54;17.00;;;7.22;;
69750;SDS011;57335;52.288;6.056;2023-05-10T09:10:20;14.07;;;4.85;;
69750;SDS011;57335;52.288;6.056;2023-05-10T09:12:47;18.63;;;6.30;;
69750;SDS011;57335;52.288;6.056;2023-05-10T09:15:15;12.93;;;4.93;;
69750;SDS011;57335;52.288;6.056;2023-05-10T09:17:42;16.58;;;5.68;;
69750;SDS011;57335;52.288;6.056;2023-05-10T09:20:10;14.43;;;5.05;;
69750;SDS011;57335;52.288;6.056;2023-05-10T09:22:36;14.65;;;4.97;;
69750;SDS011;57335;52.288;6.056;2023-05-10T09:25:10;15.80;;;5.15;;
69750;SDS011;57335;52.288;6.056;2023-05-10T09:27:38;14.13;;;5.20;;
69750;SDS011;57335;52.288;6.056;2023-05-10T09:30:14;15.65;;;5.25;;
69750;SDS011;57335;52.288;6.056;2023-05-10T09:32:43;14.23;;;5.15;;
69750;SDS011;57335;52.288;6.056;2023-05-10T09:35:15;14.82;;;5.00;;
69750;SDS011;57335;52.288;6.056;2023-05-10T09:37:46;11.93;;;4.93;;
69750;SDS011;57335;52.288;6.056;2023-05-10T09:40:17;12.25;;;4.40;;
69750;SDS011;57335;52.288;6.056;2023-05-10T09:42:55;14.48;;;4.43;;
69750;SDS011;57335;52.288;6.056;2023-05-10T09:45:27;12.63;;;4.20;;
69750;SDS011;57335;52.288;6.056;2023-05-10T09:47:54;12.75;;;3.83;;
69750;SDS011;57335;52.288;6.056;2023-05-10T09:50:21;10.57;;;3.85;;
69750;SDS011;57335;52.288;6.056;2023-05-10T09:52:58;11.30;;;4.10;;
69750;SDS011;57335;52.288;6.056;2023-05-10T09:55:38;9.35;;;3.45;;
69750;SDS011;57335;52.288;6.056;2023-05-10T09:58:06;12.15;;;4.00;;
69750;SDS011;57335;52.288;6.056;2023-05-10T10:00:37;10.55;;;3.30;;
69750;SDS011;57335;52.288;6.056;2023-05-10T10:03:05;11.85;;;4.00;;
69750;SDS011;57335;52.288;6.056;2023-05-10T10:05:33;10.25;;;3.88;;
69750;SDS011;57335;52.288;6.056;2023-05-10T10:08:01;11.05;;;3.42;;
69750;SDS011;57335;52.288;6.056;2023-05-10T10:10:29;10.77;;;3.67;;
69750;SDS011;57335;52.288;6.056;2023-05-10T10:12:58;10.27;;;3.95;;
69750;SDS011;57335;52.288;6.056;2023-05-10T10:15:25;12.48;;;4.35;;
69750;SDS011;57335;52.288;6.056;2023-05-10T10:17:52;11.32;;;3.72;;
69750;SDS011;57335;52.288;6.056;2023-05-10T10:20:20;11.45;;;4.18;;
69750;SDS011;57335;52.288;6.056;2023-05-10T10:22:47;9.73;;;3.85;;
69750;SDS011;57335;52.288;6.056;2023-05-10T10:25:15;10.98;;;4.13;;
69750;SDS011;57335;52.288;6.056;2023-05-10T10:35:54;13.10;;;4.47;;
69750;SDS011;57335;52.288;6.056;2023-05-10T10:38:23;11.35;;;4.10;;
69750;SDS011;57335;52.288;6.056;2023-05-10T10:41:03;9.93;;;3.75;;
69750;SDS011;57335;52.288;6.056;2023-05-10T10:43:35;9.18;;;3.50;;
69750;SDS011;57335;52.288;6.056;2023-05-10T10:48:41;12.07;;;4.25;;
69750;SDS011;57335;52.288;6.056;2023-05-10T10:51:13;10.98;;;3.92;;
69750;SDS011;57335;52.288;6.056;2023-05-10T10:53:40;10.40;;;3.72;;
69750;SDS011;57335;52.288;6.056;2023-05-10T10:56:10;10.25;;;3.70;;
69750;SDS011;57335;52.288;6.056;2023-05-10T10:58:38;11.60;;;3.72;;
69750;SDS011;57335;52.288;6.056;2023-05-10T11:01:12;13.40;;;4.35;;
69750;SDS011;57335;52.288;6.056;2023-05-10T11:03:41;12.90;;;4.35;;
69750;SDS011;57335;52.288;6.056;2023-05-10T11:06:30;11.20;;;3.80;;
69750;SDS011;57335;52.288;6.056;2023-05-10T11:08:58;11.52;;;4.28;;
69750;SDS011;57335;52.288;6.056;2023-05-10T11:11:25;11.95;;;4.03;;
69750;SDS011;57335;52.288;6.056;2023-05-10T11:13:51;10.98;;;4.20;;
69750;SDS011;57335;52.288;6.056;2023-05-10T11:16:22;10.15;;;4.47;;
69750;SDS011;57335;52.288;6.056;2023-05-10T11:19:06;12.02;;;4.60;;
69750;SDS011;57335;52.288;6.056;2023-05-10T11:21:44;10.38;;;4.20;;
69750;SDS011;57335;52.288;6.056;2023-05-10T11:24:19;12.10;;;4.32;;
69750;SDS011;57335;52.288;6.056;2023-05-10T11:26:49;11.45;;;4.00;;
69750;SDS011;57335;52.288;6.056;2023-05-10T11:29:16;10.68;;;4.43;;
69750;SDS011;57335;52.288;6.056;2023-05-10T11:31:43;9.88;;;3.90;;
69750;SDS011;57335;52.288;6.056;2023-05-10T11:34:10;10.55;;;3.90;;
69750;SDS011;57335;52.288;6.056;2023-05-10T11:36:37;10.10;;;3.50;;
69750;SDS011;57335;52.288;6.056;2023-05-10T11:39:04;10.40;;;3.72;;
69750;SDS011;57335;52.288;6.056;2023-05-10T11:41:31;11.13;;;3.95;;
69750;SDS011;57335;52.288;6.056;2023-05-10T11:43:57;10.65;;;4.10;;
69750;SDS011;57335;52.288;6.056;2023-05-10T11:46:25;12.23;;;3.90;;
69750;SDS011;57335;52.288;6.056;2023-05-10T11:48:59;10.32;;;4.10;;
69750;SDS011;57335;52.288;6.056;2023-05-10T11:51:27;9.38;;;3.40;;
69750;SDS011;57335;52.288;6.056;2023-05-10T11:53:53;10.82;;;3.60;;
69750;SDS011;57335;52.288;6.056;2023-05-10T11:56:21;7.72;;;2.95;;
69750;SDS011;57335;52.288;6.056;2023-05-10T11:58:52;8.52;;;3.20;;
69750;SDS011;57335;52.288;6.056;2023-05-10T12:01:20;10.27;;;4.22;;
69750;SDS011;57335;52.288;6.056;2023-05-10T12:03:47;8.52;;;3.10;;
69750;SDS011;57335;52.288;6.056;2023-05-10T12:06:15;9.80;;;3.35;;
69750;SDS011;57335;52.288;6.056;2023-05-10T12:08:44;9.30;;;3.40;;
69750;SDS011;57335;52.288;6.056;2023-05-10T12:11:12;10.40;;;3.60;;
69750;SDS011;57335;52.288;6.056;2023-05-10T12:13:39;10.98;;;3.20;;
69750;SDS011;57335;52.288;6.056;2023-05-10T12:16:16;9.15;;;3.13;;
69750;SDS011;57335;52.288;6.056;2023-05-10T12:18:53;9.27;;;3.30;;
69750;SDS011;57335;52.288;6.056;2023-05-10T12:21:22;10.60;;;3.40;;
69750;SDS011;57335;52.288;6.056;2023-05-10T12:23:50;12.25;;;4.10;;
69750;SDS011;57335;52.288;6.056;2023-05-10T12:26:18;10.23;;;3.30;;
69750;SDS011;57335;52.288;6.056;2023-05-10T12:28:47;10.27;;;3.05;;
69750;SDS011;57335;52.288;6.056;2023-05-10T12:31:14;9.80;;;2.83;;
69750;SDS011;57335;52.288;6.056;2023-05-10T12:33:44;10.05;;;3.53;;
69750;SDS011;57335;52.288;6.056;2023-05-10T12:36:11;10.30;;;3.65;;
69750;SDS011;57335;52.288;6.056;2023-05-10T12:38:40;10.07;;;3.35;;
69750;SDS011;57335;52.288;6.056;2023-05-10T12:41:08;9.98;;;4.00;;
69750;SDS011;57335;52.288;6.056;2023-05-10T12:43:36;10.63;;;3.65;;
69750;SDS011;57335;52.288;6.056;2023-05-10T12:46:10;9.73;;;3.45;;
69750;SDS011;57335;52.288;6.056;2023-05-10T12:48:36;9.50;;;3.65;;
69750;SDS011;57335;52.288;6.056;2023-05-10T12:51:04;10.38;;;3.50;;
69750;SDS011;57335;52.288;6.056;2023-05-10T12:53:31;10.32;;;3.17;;
69750;SDS011;57335;52.288;6.056;2023-05-10T12:55:57;9.48;;;3.45;;
69750;SDS011;57335;52.288;6.056;2023-05-10T12:58:24;10.80;;;3.75;;
69750;SDS011;57335;52.288;6.056;2023-05-10T13:01:01;10.13;;;3.40;;
69750;SDS011;57335;52.288;6.056;2023-05-10T13:03:28;10.82;;;3.70;;
69750;SDS011;57335;52.288;6.056;2023-05-10T13:05:55;9.82;;;3.25;;
69750;SDS011;57335;52.288;6.056;2023-05-10T13:08:21;10.32;;;3.75;;
69750;SDS011;57335;52.288;6.056;2023-05-10T13:10:47;9.57;;;3.70;;
69750;SDS011;57335;52.288;6.056;2023-05-10T13:13:14;9.63;;;3.40;;
69750;SDS011;57335;52.288;6.056;2023-05-10T13:15:41;8.60;;;3.50;;
69750;SDS011;57335;52.288;6.056;2023-05-10T13:18:07;10.30;;;3.67;;
69750;SDS011;57335;52.288;6.056;2023-05-10T13:20:34;9.40;;;3.60;;
69750;SDS011;57335;52.288;6.056;2023-05-10T13:23:00;10.57;;;3.60;;
69750;SDS011;57335;52.288;6.056;2023-05-10T13:25:27;9.88;;;3.70;;
69750;SDS011;57335;52.288;6.056;2023-05-10T13:27:53;11.10;;;4.10;;
69750;SDS011;57335;52.288;6.056;2023-05-10T13:30:19;10.60;;;3.95;;
69750;SDS011;57335;52.288;6.056;2023-05-10T13:32:45;10.63;;;4.00;;
69750;SDS011;57335;52.288;6.056;2023-05-10T13:35:12;12.20;;;4.10;;
69750;SDS011;57335;52.288;6.056;2023-05-10T13:37:38;8.95;;;3.60;;
69750;SDS011;57335;52.288;6.056;2023-05-10T13:40:05;9.93;;;3.92;;
69750;SDS011;57335;52.288;6.056;2023-05-10T13:42:31;9.38;;;3.63;;
69750;SDS011;57335;52.288;6.056;2023-05-10T13:44:58;10.00;;;4.10;;
69750;SDS011;57335;52.288;6.056;2023-05-10T13:47:24;8.68;;;3.50;;
69750;SDS011;57335;52.288;6.056;2023-05-10T13:49:50;10.98;;;3.95;;
69750;SDS011;57335;52.288;6.056;2023-05-10T13:52:17;11.07;;;4.03;;
69750;SDS011;57335;52.288;6.056;2023-05-10T13:54:43;9.93;;;4.10;;
69750;SDS011;57335;52.288;6.056;2023-05-10T13:57:09;9.48;;;3.80;;
69750;SDS011;57335;52.288;6.056;2023-05-10T13:59:36;9.60;;;4.25;;
69750;SDS011;57335;52.288;6.056;2023-05-10T14:02:02;12.25;;;3.97;;
69750;SDS011;57335;52.288;6.056;2023-05-10T14:04:29;10.50;;;4.30;;
69750;SDS011;57335;52.288;6.056;2023-05-10T14:06:55;12.20;;;4.40;;
69750;SDS011;57335;52.288;6.056;2023-05-10T14:09:21;9.27;;;4.13;;
69750;SDS011;57335;52.288;6.056;2023-05-10T14:11:48;10.80;;;4.25;;
69750;SDS011;57335;52.288;6.056;2023-05-10T14:14:14;12.02;;;4.40;;
69750;SDS011;57335;52.288;6.056;2023-05-10T14:16:43;11.50;;;3.88;;
69750;SDS011;57335;52.288;6.056;2023-05-10T14:19:10;11.70;;;4.20;;
69750;SDS011;57335;52.288;6.056;2023-05-10T14:21:37;11.63;;;4.22;;
69750;SDS011;57335;52.288;6.056;2023-05-10T14:24:03;12.60;;;5.05;;
69750;SDS011;57335;52.288;6.056;2023-05-10T14:26:30;12.43;;;4.70;;
69750;SDS011;57335;52.288;6.056;2023-05-10T14:28:56;12.95;;;4.85;;
69750;SDS011;57335;52.288;6.056;2023-05-10T14:31:23;12.55;;;5.30;;
69750;SDS011;57335;52.288;6.056;2023-05-10T14:33:49;13.05;;;5.28;;
69750;SDS011;57335;52.288;6.056;2023-05-10T14:36:17;11.70;;;4.47;;
69750;SDS011;57335;52.288;6.056;2023-05-10T14:38:43;14.48;;;5.03;;
69750;SDS011;57335;52.288;6.056;2023-05-10T14:41:10;13.02;;;5.55;;
69750;SDS011;57335;52.288;6.056;2023-05-10T14:43:37;12.82;;;5.35;;
69750;SDS011;57335;52.288;6.056;2023-05-10T14:46:03;13.10;;;5.10;;
69750;SDS011;57335;52.288;6.056;2023-05-10T14:48:29;12.60;;;5.25;;
69750;SDS011;57335;52.288;6.056;2023-05-10T14:50:56;12.93;;;4.85;;
69750;SDS011;57335;52.288;6.056;2023-05-10T14:53:22;13.05;;;5.20;;
69750;SDS011;57335;52.288;6.056;2023-05-10T14:55:48;17.13;;;5.68;;
69750;SDS011;57335;52.288;6.056;2023-05-10T14:58:14;12.90;;;5.35;;
69750;SDS011;57335;52.288;6.056;2023-05-10T15:00:41;13.82;;;5.28;;
69750;SDS011;57335;52.288;6.056;2023-05-10T15:03:08;15.55;;;6.00;;
69750;SDS011;57335;52.288;6.056;2023-05-10T15:05:34;13.80;;;5.55;;